sensor_id;sensor_type;location;lat;lon;timestamp;P1;durP1;ratioP1;P2;durP2;ratioP2
11819;SDS011;5967;48.944;9.240;2022-07-23T00:00:00;7.82;;;6.28;;
11819;SDS011;5967;48.944;9.240;2022-07-23T00:02:25;7.47;;;5.93;;
11819;SDS011;5967;48.944;9.240;2022-07-23T00:04:51;8.25;;;5.78;;
11819;SDS011;5967;48.944;9.240;2022-07-23T00:07:17;9.73;;;5.70;;
11819;SDS011;5967;48.944;9.240;2022-07-23T00:09:42;5.85;;;5.03;;
11819;SDS011;5967;48.944;9.240;2022-07-23T00:12:08;5.95;;;5.35;;
11819;SDS011;5967;48.944;9.240;2022-07-23T00:14:33;5.53;;;5.03;;
11819;SDS011;5967;48.944;9.240;2022-07-23T00:17:01;5.85;;;4.93;;
11819;SDS011;5967;48.944;9.240;2022-07-23T00:19:30;4.90;;;4.40;;
11819;SDS011;5967;48.944;9.240;2022-07-23T00:21:55;6.05;;;4.18;;
11819;SDS011;5967;48.944;9.240;2022-07-23T00:24:21;5.25;;;4.30;;
11819;SDS011;5967;48.944;9.240;2022-07-23T00:26:48;5.88;;;4.28;;
11819;SDS011;5967;48.944;9.240;2022-07-23T00:29:18;4.90;;;4.40;;
11819;SDS011;5967;48.944;9.240;2022-07-23T00:31:44;4.82;;;4.30;;
11819;SDS011;5967;48.944;9.240;2022-07-23T00:34:10;5.07;;;4.50;;
11819;SDS011;5967;48.944;9.240;2022-07-23T00:36:35;4.30;;;3.95;;
11819;SDS011;5967;48.944;9.240;2022-07-23T00:39:01;5.30;;;4.47;;
11819;SDS011;5967;48.944;9.240;2022-07-23T00:41:27;4.40;;;4.00;;
11819;SDS011;5967;48.944;9.240;2022-07-23T00:43:52;9.63;;;3.85;;
11819;SDS011;5967;48.944;9.240;2022-07-23T00:46:19;4.47;;;4.07;;
11819;SDS011;5967;48.944;9.240;2022-07-23T00:48:50;4.38;;;3.97;;
11819;SDS011;5967;48.944;9.240;2022-07-23T00:51:15;5.40;;;3.72;;
11819;SDS011;5967;48.944;9.240;2022-07-23T00:53:42;4.63;;;3.33;;
11819;SDS011;5967;48.944;9.240;2022-07-23T00:56:08;6.47;;;3.88;;
11819;SDS011;5967;48.944;9.240;2022-07-23T00:58:35;4.10;;;3.70;;
11819;SDS011;5967;48.944;9.240;2022-07-23T01:01:01;4.45;;;4.05;;
11819;SDS011;5967;48.944;9.240;2022-07-23T01:03:30;4.65;;;3.83;;
11819;SDS011;5967;48.944;9.240;2022-07-23T01:05:55;5.80;;;3.78;;
11819;SDS011;5967;48.944;9.240;2022-07-23T01:08:22;4.72;;;3.83;;
11819;SDS011;5967;48.944;9.240;2022-07-23T01:10:48;5.18;;;4.13;;
11819;SDS011;5967;48.944;9.240;2022-07-23T01:13:16;4.00;;;3.58;;
11819;SDS011;5967;48.944;9.240;2022-07-23T01:15:41;3.90;;;3.60;;
11819;SDS011;5967;48.944;9.240;2022-07-23T01:18:07;4.53;;;3.70;;
11819;SDS011;5967;48.944;9.240;2022-07-23T01:20:33;4.10;;;3.67;;
11819;SDS011;5967;48.944;9.240;2022-07-23T01:22:59;4.38;;;3.90;;
11819;SDS011;5967;48.944;9.240;2022-07-23T01:25:25;4.78;;;3.85;;
11819;SDS011;5967;48.944;9.240;2022-07-23T01:27:54;5.07;;;3.70;;
11819;SDS011;5967;48.944;9.240;2022-07-23T01:30:20;4.45;;;3.83;;
11819;SDS011;5967;48.944;9.240;2022-07-23T01:32:45;6.03;;;4.40;;
11819;SDS011;5967;48.944;9.240;2022-07-23T01:35:11;4.28;;;3.70;;
11819;SDS011;5967;48.944;9.240;2022-07-23T01:37:37;5.50;;;3.80;;
11819;SDS011;5967;48.944;9.240;2022-07-23T01:40:03;4.20;;;3.80;;
11819;SDS011;5967;48.944;9.240;2022-07-23T01:42:30;4.18;;;3.83;;
11819;SDS011;5967;48.944;9.240;2022-07-23T01:44:55;3.95;;;3.65;;
11819;SDS011;5967;48.944;9.240;2022-07-23T01:47:21;5.10;;;3.97;;
11819;SDS011;5967;48.944;9.240;2022-07-23T01:49:47;4.53;;;4.13;;
11819;SDS011;5967;48.944;9.240;2022-07-23T01:52:12;4.32;;;3.88;;
11819;SDS011;5967;48.944;9.240;2022-07-23T01:54:38;5.65;;;4.95;;
11819;SDS011;5967;48.944;9.240;2022-07-23T01:57:04;4.38;;;3.97;;
11819;SDS011;5967;48.944;9.240;2022-07-23T01:59:31;4.25;;;3.78;;
11819;SDS011;5967;48.944;9.240;2022-07-23T02:01:57;4.90;;;4.30;;
11819;SDS011;5967;48.944;9.240;2022-07-23T02:04:23;4.72;;;3.85;;
11819;SDS011;5967;48.944;9.240;2022-07-23T02:06:50;4.20;;;3.58;;
11819;SDS011;5967;48.944;9.240;2022-07-23T02:09:16;4.97;;;4.50;;
11819;SDS011;5967;48.944;9.240;2022-07-23T02:11:42;6.57;;;4.03;;
11819;SDS011;5967;48.944;9.240;2022-07-23T02:14:08;7.65;;;4.30;;
11819;SDS011;5967;48.944;9.240;2022-07-23T02:16:34;4.03;;;3.70;;
11819;SDS011;5967;48.944;9.240;2022-07-23T02:19:00;7.82;;;4.10;;
11819;SDS011;5967;48.944;9.240;2022-07-23T02:21:25;3.85;;;3.53;;
11819;SDS011;5967;48.944;9.240;2022-07-23T02:23:51;4.88;;;3.70;;
11819;SDS011;5967;48.944;9.240;2022-07-23T02:26:17;6.32;;;4.07;;
11819;SDS011;5967;48.944;9.240;2022-07-23T02:28:42;4.65;;;4.13;;
11819;SDS011;5967;48.944;9.240;2022-07-23T02:31:08;6.38;;;4.50;;
11819;SDS011;5967;48.944;9.240;2022-07-23T02:33:33;4.68;;;4.28;;
11819;SDS011;5967;48.944;9.240;2022-07-23T02:35:59;4.82;;;4.25;;
11819;SDS011;5967;48.944;9.240;2022-07-23T02:38:25;4.50;;;4.10;;
11819;SDS011;5967;48.944;9.240;2022-07-23T02:40:50;4.97;;;4.20;;
11819;SDS011;5967;48.944;9.240;2022-07-23T02:43:16;4.30;;;3.90;;
11819;SDS011;5967;48.944;9.240;2022-07-23T02:45:42;4.13;;;3.72;;
11819;SDS011;5967;48.944;9.240;2022-07-23T02:48:07;4.50;;;3.90;;
11819;SDS011;5967;48.944;9.240;2022-07-23T02:50:33;3.90;;;3.45;;
11819;SDS011;5967;48.944;9.240;2022-07-23T02:52:59;5.15;;;3.80;;
11819;SDS011;5967;48.944;9.240;2022-07-23T02:55:25;5.93;;;4.40;;
11819;SDS011;5967;48.944;9.240;2022-07-23T02:57:51;4.85;;;4.07;;
11819;SDS011;5967;48.944;9.240;2022-07-23T03:00:17;4.47;;;4.05;;
11819;SDS011;5967;48.944;9.240;2022-07-23T03:02:43;6.70;;;4.10;;
11819;SDS011;5967;48.944;9.240;2022-07-23T03:05:08;6.05;;;4.80;;
11819;SDS011;5967;48.944;9.240;2022-07-23T03:07:37;5.68;;;4.38;;
11819;SDS011;5967;48.944;9.240;2022-07-23T03:10:03;5.68;;;4.30;;
11819;SDS011;5967;48.944;9.240;2022-07-23T03:12:29;5.40;;;4.50;;
11819;SDS011;5967;48.944;9.240;2022-07-23T03:14:54;7.70;;;4.55;;
11819;SDS011;5967;48.944;9.240;2022-07-23T03:17:20;4.57;;;4.18;;
11819;SDS011;5967;48.944;9.240;2022-07-23T03:19:46;6.65;;;4.28;;
11819;SDS011;5967;48.944;9.240;2022-07-23T03:22:11;4.97;;;4.22;;
11819;SDS011;5967;48.944;9.240;2022-07-23T03:24:37;5.00;;;4.00;;
11819;SDS011;5967;48.944;9.240;2022-07-23T03:27:21;4.38;;;3.92;;
11819;SDS011;5967;48.944;9.240;2022-07-23T03:29:49;4.60;;;4.13;;
11819;SDS011;5967;48.944;9.240;2022-07-23T03:32:16;5.00;;;4.07;;
11819;SDS011;5967;48.944;9.240;2022-07-23T03:34:41;4.72;;;4.22;;
11819;SDS011;5967;48.944;9.240;2022-07-23T03:37:07;5.97;;;3.92;;
11819;SDS011;5967;48.944;9.240;2022-07-23T03:39:33;4.75;;;4.35;;
11819;SDS011;5967;48.944;9.240;2022-07-23T03:41:58;5.88;;;4.30;;
11819;SDS011;5967;48.944;9.240;2022-07-23T03:44:24;4.72;;;4.20;;
11819;SDS011;5967;48.944;9.240;2022-07-23T03:46:50;6.07;;;4.13;;
11819;SDS011;5967;48.944;9.240;2022-07-23T03:49:16;4.78;;;4.25;;
11819;SDS011;5967;48.944;9.240;2022-07-23T03:51:41;4.38;;;3.97;;
11819;SDS011;5967;48.944;9.240;2022-07-23T03:54:09;5.38;;;4.20;;
11819;SDS011;5967;48.944;9.240;2022-07-23T03:59:56;4.80;;;4.30;;
11819;SDS011;5967;48.944;9.240;2022-07-23T04:02:22;4.72;;;4.32;;
11819;SDS011;5967;48.944;9.240;2022-07-23T04:04:48;4.75;;;4.35;;
11819;SDS011;5967;48.944;9.240;2022-07-23T04:07:13;4.45;;;4.05;;
11819;SDS011;5967;48.944;9.240;2022-07-23T04:09:39;5.00;;;4.60;;
11819;SDS011;5967;48.944;9.240;2022-07-23T04:12:06;4.70;;;4.05;;
11819;SDS011;5967;48.944;9.240;2022-07-23T04:14:32;5.55;;;4.53;;
11819;SDS011;5967;48.944;9.240;2022-07-23T04:17:04;4.78;;;4.38;;
11819;SDS011;5967;48.944;9.240;2022-07-23T04:19:33;5.82;;;3.92;;
11819;SDS011;5967;48.944;9.240;2022-07-23T04:22:00;4.53;;;3.70;;
11819;SDS011;5967;48.944;9.240;2022-07-23T04:24:26;5.15;;;4.03;;
11819;SDS011;5967;48.944;9.240;2022-07-23T04:26:51;5.95;;;4.00;;
11819;SDS011;5967;48.944;9.240;2022-07-23T04:29:18;7.30;;;4.05;;
11819;SDS011;5967;48.944;9.240;2022-07-23T04:31:43;7.32;;;4.15;;
11819;SDS011;5967;48.944;9.240;2022-07-23T04:34:09;4.93;;;4.28;;
11819;SDS011;5967;48.944;9.240;2022-07-23T04:36:36;4.72;;;4.05;;
11819;SDS011;5967;48.944;9.240;2022-07-23T04:39:01;4.55;;;4.13;;
11819;SDS011;5967;48.944;9.240;2022-07-23T04:41:27;4.25;;;3.85;;
11819;SDS011;5967;48.944;9.240;2022-07-23T04:43:53;5.38;;;4.28;;
11819;SDS011;5967;48.944;9.240;2022-07-23T04:46:18;4.03;;;3.60;;
11819;SDS011;5967;48.944;9.240;2022-07-23T04:48:44;6.80;;;4.43;;
11819;SDS011;5967;48.944;9.240;2022-07-23T04:51:09;4.50;;;4.00;;
11819;SDS011;5967;48.944;9.240;2022-07-23T04:53:36;4.43;;;4.03;;
11819;SDS011;5967;48.944;9.240;2022-07-23T04:56:03;4.70;;;4.20;;
11819;SDS011;5967;48.944;9.240;2022-07-23T04:58:29;6.95;;;5.05;;
11819;SDS011;5967;48.944;9.240;2022-07-23T05:00:56;4.30;;;3.90;;
11819;SDS011;5967;48.944;9.240;2022-07-23T05:03:23;4.97;;;4.47;;
11819;SDS011;5967;48.944;9.240;2022-07-23T05:05:48;6.03;;;4.75;;
11819;SDS011;5967;48.944;9.240;2022-07-23T05:08:14;5.20;;;4.32;;
11819;SDS011;5967;48.944;9.240;2022-07-23T05:10:40;4.63;;;4.20;;
11819;SDS011;5967;48.944;9.240;2022-07-23T05:13:05;4.57;;;4.07;;
11819;SDS011;5967;48.944;9.240;2022-07-23T05:15:34;5.38;;;4.72;;
11819;SDS011;5967;48.944;9.240;2022-07-23T05:17:59;6.00;;;4.63;;
11819;SDS011;5967;48.944;9.240;2022-07-23T05:20:28;5.35;;;4.70;;
11819;SDS011;5967;48.944;9.240;2022-07-23T05:22:54;5.97;;;4.78;;
11819;SDS011;5967;48.944;9.240;2022-07-23T05:25:19;5.50;;;5.00;;
11819;SDS011;5967;48.944;9.240;2022-07-23T05:27:45;5.47;;;4.68;;
11819;SDS011;5967;48.944;9.240;2022-07-23T05:30:11;5.07;;;4.68;;
11819;SDS011;5967;48.944;9.240;2022-07-23T05:32:37;6.60;;;4.95;;
11819;SDS011;5967;48.944;9.240;2022-07-23T05:35:04;5.82;;;4.90;;
11819;SDS011;5967;48.944;9.240;2022-07-23T05:37:30;6.50;;;4.38;;
11819;SDS011;5967;48.944;9.240;2022-07-23T05:39:59;5.80;;;4.88;;
11819;SDS011;5967;48.944;9.240;2022-07-23T05:42:31;6.53;;;5.45;;
11819;SDS011;5967;48.944;9.240;2022-07-23T05:44:56;5.75;;;5.00;;
11819;SDS011;5967;48.944;9.240;2022-07-23T05:47:22;6.28;;;5.68;;
11819;SDS011;5967;48.944;9.240;2022-07-23T05:49:48;5.97;;;5.40;;
11819;SDS011;5967;48.944;9.240;2022-07-23T05:52:14;5.97;;;5.47;;
11819;SDS011;5967;48.944;9.240;2022-07-23T05:54:39;6.45;;;5.82;;
11819;SDS011;5967;48.944;9.240;2022-07-23T05:57:05;6.68;;;5.68;;
11819;SDS011;5967;48.944;9.240;2022-07-23T05:59:30;7.60;;;5.22;;
11819;SDS011;5967;48.944;9.240;2022-07-23T06:01:56;5.97;;;5.40;;
11819;SDS011;5967;48.944;9.240;2022-07-23T06:04:22;7.72;;;5.60;;
11819;SDS011;5967;48.944;9.240;2022-07-23T06:06:48;6.80;;;5.57;;
11819;SDS011;5967;48.944;9.240;2022-07-23T06:09:13;5.97;;;5.10;;
11819;SDS011;5967;48.944;9.240;2022-07-23T06:11:39;7.00;;;5.50;;
11819;SDS011;5967;48.944;9.240;2022-07-23T06:14:05;5.65;;;5.03;;
11819;SDS011;5967;48.944;9.240;2022-07-23T06:16:31;6.47;;;5.82;;
11819;SDS011;5967;48.944;9.240;2022-07-23T06:18:57;7.55;;;5.75;;
11819;SDS011;5967;48.944;9.240;2022-07-23T06:21:22;6.20;;;5.60;;
11819;SDS011;5967;48.944;9.240;2022-07-23T06:23:48;7.82;;;5.30;;
11819;SDS011;5967;48.944;9.240;2022-07-23T06:26:14;6.22;;;5.63;;
11819;SDS011;5967;48.944;9.240;2022-07-23T06:28:41;11.80;;;6.18;;
11819;SDS011;5967;48.944;9.240;2022-07-23T06:31:07;7.15;;;6.00;;
11819;SDS011;5967;48.944;9.240;2022-07-23T06:33:33;7.10;;;6.40;;
11819;SDS011;5967;48.944;9.240;2022-07-23T06:35:59;7.90;;;6.28;;
11819;SDS011;5967;48.944;9.240;2022-07-23T06:38:28;9.95;;;6.45;;
11819;SDS011;5967;48.944;9.240;2022-07-23T06:40:53;7.55;;;6.40;;
11819;SDS011;5967;48.944;9.240;2022-07-23T06:43:19;7.88;;;6.32;;
11819;SDS011;5967;48.944;9.240;2022-07-23T06:45:44;9.43;;;6.30;;
11819;SDS011;5967;48.944;9.240;2022-07-23T06:48:15;8.55;;;6.75;;
11819;SDS011;5967;48.944;9.240;2022-07-23T06:50:41;6.82;;;6.10;;
11819;SDS011;5967;48.944;9.240;2022-07-23T06:53:07;7.75;;;6.38;;
11819;SDS011;5967;48.944;9.240;2022-07-23T06:55:32;8.18;;;6.60;;
11819;SDS011;5967;48.944;9.240;2022-07-23T06:58:00;7.72;;;6.10;;
11819;SDS011;5967;48.944;9.240;2022-07-23T07:00:26;6.80;;;6.20;;
11819;SDS011;5967;48.944;9.240;2022-07-23T07:02:53;7.43;;;6.72;;
11819;SDS011;5967;48.944;9.240;2022-07-23T07:05:19;7.13;;;6.40;;
11819;SDS011;5967;48.944;9.240;2022-07-23T07:07:44;8.57;;;6.80;;
11819;SDS011;5967;48.944;9.240;2022-07-23T07:10:10;9.48;;;6.55;;
11819;SDS011;5967;48.944;9.240;2022-07-23T07:12:37;8.70;;;7.10;;
11819;SDS011;5967;48.944;9.240;2022-07-23T07:15:03;11.00;;;6.85;;
11819;SDS011;5967;48.944;9.240;2022-07-23T07:17:29;10.73;;;6.80;;
11819;SDS011;5967;48.944;9.240;2022-07-23T07:19:56;7.72;;;6.95;;
11819;SDS011;5967;48.944;9.240;2022-07-23T07:22:22;7.75;;;6.65;;
11819;SDS011;5967;48.944;9.240;2022-07-23T07:24:48;7.10;;;6.20;;
11819;SDS011;5967;48.944;9.240;2022-07-23T07:27:13;8.25;;;6.75;;
11819;SDS011;5967;48.944;9.240;2022-07-23T07:29:39;7.35;;;6.70;;
11819;SDS011;5967;48.944;9.240;2022-07-23T07:32:05;7.55;;;6.70;;
11819;SDS011;5967;48.944;9.240;2022-07-23T07:34:30;10.30;;;7.65;;
11819;SDS011;5967;48.944;9.240;2022-07-23T07:36:59;8.30;;;7.35;;
11819;SDS011;5967;48.944;9.240;2022-07-23T07:39:25;9.98;;;7.35;;
11819;SDS011;5967;48.944;9.240;2022-07-23T07:41:50;8.63;;;7.07;;
11819;SDS011;5967;48.944;9.240;2022-07-23T07:44:16;9.68;;;7.38;;
11819;SDS011;5967;48.944;9.240;2022-07-23T07:46:41;8.53;;;7.63;;
11819;SDS011;5967;48.944;9.240;2022-07-23T07:49:07;9.97;;;8.00;;
11819;SDS011;5967;48.944;9.240;2022-07-23T07:51:33;9.83;;;8.20;;
11819;SDS011;5967;48.944;9.240;2022-07-23T07:53:59;10.37;;;8.23;;
11819;SDS011;5967;48.944;9.240;2022-07-23T07:56:25;9.33;;;8.00;;
11819;SDS011;5967;48.944;9.240;2022-07-23T07:58:51;10.05;;;8.43;;
11819;SDS011;5967;48.944;9.240;2022-07-23T08:01:16;10.68;;;7.68;;
11819;SDS011;5967;48.944;9.240;2022-07-23T08:03:44;9.10;;;7.05;;
11819;SDS011;5967;48.944;9.240;2022-07-23T08:06:09;7.97;;;6.70;;
11819;SDS011;5967;48.944;9.240;2022-07-23T08:08:38;8.77;;;7.20;;
11819;SDS011;5967;48.944;9.240;2022-07-23T08:11:03;7.80;;;6.95;;
11819;SDS011;5967;48.944;9.240;2022-07-23T08:13:29;8.40;;;7.55;;
11819;SDS011;5967;48.944;9.240;2022-07-23T08:15:55;9.50;;;7.53;;
11819;SDS011;5967;48.944;9.240;2022-07-23T08:18:20;8.57;;;6.65;;
11819;SDS011;5967;48.944;9.240;2022-07-23T08:20:46;9.35;;;6.40;;
11819;SDS011;5967;48.944;9.240;2022-07-23T08:23:12;8.05;;;6.65;;
11819;SDS011;5967;48.944;9.240;2022-07-23T08:25:39;9.95;;;7.95;;
11819;SDS011;5967;48.944;9.240;2022-07-23T08:28:06;8.50;;;7.70;;
11819;SDS011;5967;48.944;9.240;2022-07-23T08:30:37;8.68;;;7.30;;
11819;SDS011;5967;48.944;9.240;2022-07-23T08:33:04;7.25;;;6.55;;
11819;SDS011;5967;48.944;9.240;2022-07-23T08:35:48;7.85;;;7.07;;
11819;SDS011;5967;48.944;9.240;2022-07-23T08:38:16;11.43;;;7.30;;
11819;SDS011;5967;48.944;9.240;2022-07-23T08:40:44;8.07;;;7.13;;
11819;SDS011;5967;48.944;9.240;2022-07-23T08:43:15;8.23;;;7.43;;
11819;SDS011;5967;48.944;9.240;2022-07-23T08:45:44;7.70;;;6.70;;
11819;SDS011;5967;48.944;9.240;2022-07-23T08:48:12;8.07;;;7.07;;
11819;SDS011;5967;48.944;9.240;2022-07-23T08:50:41;6.47;;;5.88;;
11819;SDS011;5967;48.944;9.240;2022-07-23T08:53:08;6.78;;;6.07;;
11819;SDS011;5967;48.944;9.240;2022-07-23T08:55:35;6.03;;;5.47;;
11819;SDS011;5967;48.944;9.240;2022-07-23T08:58:01;6.13;;;5.53;;
11819;SDS011;5967;48.944;9.240;2022-07-23T09:00:26;6.32;;;5.72;;
11819;SDS011;5967;48.944;9.240;2022-07-23T09:02:52;7.60;;;5.75;;
11819;SDS011;5967;48.944;9.240;2022-07-23T09:05:18;6.38;;;5.60;;
11819;SDS011;5967;48.944;9.240;2022-07-23T09:10:51;6.88;;;6.15;;
11819;SDS011;5967;48.944;9.240;2022-07-23T09:16:13;8.30;;;6.05;;
11819;SDS011;5967;48.944;9.240;2022-07-23T09:18:48;5.93;;;5.40;;
11819;SDS011;5967;48.944;9.240;2022-07-23T09:21:22;7.43;;;6.63;;
11819;SDS011;5967;48.944;9.240;2022-07-23T09:24:00;8.40;;;6.15;;
11819;SDS011;5967;48.944;9.240;2022-07-23T09:29:03;7.57;;;6.10;;
11819;SDS011;5967;48.944;9.240;2022-07-23T09:31:41;6.40;;;5.80;;
11819;SDS011;5967;48.944;9.240;2022-07-23T09:34:15;6.85;;;6.18;;
11819;SDS011;5967;48.944;9.240;2022-07-23T09:36:46;8.07;;;6.30;;
11819;SDS011;5967;48.944;9.240;2022-07-23T09:39:16;7.20;;;6.45;;
11819;SDS011;5967;48.944;9.240;2022-07-23T09:41:54;6.30;;;5.70;;
11819;SDS011;5967;48.944;9.240;2022-07-23T09:44:20;6.20;;;5.53;;
11819;SDS011;5967;48.944;9.240;2022-07-23T09:46:47;6.32;;;5.75;;
11819;SDS011;5967;48.944;9.240;2022-07-23T09:51:48;6.28;;;5.68;;
11819;SDS011;5967;48.944;9.240;2022-07-23T09:54:35;5.50;;;5.00;;
11819;SDS011;5967;48.944;9.240;2022-07-23T09:57:06;6.80;;;5.18;;
11819;SDS011;5967;48.944;9.240;2022-07-23T09:59:36;5.65;;;5.03;;
11819;SDS011;5967;48.944;9.240;2022-07-23T10:02:03;6.55;;;5.00;;
11819;SDS011;5967;48.944;9.240;2022-07-23T10:04:30;5.07;;;4.57;;
11819;SDS011;5967;48.944;9.240;2022-07-23T10:06:58;6.90;;;4.68;;
11819;SDS011;5967;48.944;9.240;2022-07-23T10:09:26;5.15;;;4.65;;
11819;SDS011;5967;48.944;9.240;2022-07-23T10:12:00;6.15;;;5.25;;
11819;SDS011;5967;48.944;9.240;2022-07-23T10:14:44;5.07;;;4.68;;
11819;SDS011;5967;48.944;9.240;2022-07-23T10:17:10;4.75;;;4.25;;
11819;SDS011;5967;48.944;9.240;2022-07-23T10:19:38;5.53;;;4.63;;
11819;SDS011;5967;48.944;9.240;2022-07-23T10:22:09;4.90;;;4.40;;
11819;SDS011;5967;48.944;9.240;2022-07-23T10:24:45;4.90;;;4.28;;
11819;SDS011;5967;48.944;9.240;2022-07-23T10:33:10;7.28;;;5.32;;
11819;SDS011;5967;48.944;9.240;2022-07-23T10:35:48;6.88;;;5.35;;
11819;SDS011;5967;48.944;9.240;2022-07-23T10:38:47;5.80;;;5.20;;
11819;SDS011;5967;48.944;9.240;2022-07-23T10:41:33;14.32;;;10.90;;
11819;SDS011;5967;48.944;9.240;2022-07-23T10:44:09;5.28;;;4.60;;
11819;SDS011;5967;48.944;9.240;2022-07-23T10:46:35;7.32;;;5.25;;
11819;SDS011;5967;48.944;9.240;2022-07-23T10:49:22;6.70;;;5.00;;
11819;SDS011;5967;48.944;9.240;2022-07-23T10:52:34;5.50;;;5.00;;
11819;SDS011;5967;48.944;9.240;2022-07-23T10:54:54;6.53;;;5.32;;
11819;SDS011;5967;48.944;9.240;2022-07-23T10:57:24;5.65;;;4.50;;
11819;SDS011;5967;48.944;9.240;2022-07-23T11:02:39;5.68;;;5.10;;
11819;SDS011;5967;48.944;9.240;2022-07-23T11:08:06;5.55;;;5.05;;
11819;SDS011;5967;48.944;9.240;2022-07-23T11:10:31;5.80;;;5.30;;
11819;SDS011;5967;48.944;9.240;2022-07-23T11:13:18;5.60;;;5.10;;
11819;SDS011;5967;48.944;9.240;2022-07-23T11:31:54;4.53;;;4.13;;
11819;SDS011;5967;48.944;9.240;2022-07-23T11:36:59;4.70;;;4.30;;
11819;SDS011;5967;48.944;9.240;2022-07-23T11:39:26;4.70;;;4.30;;
11819;SDS011;5967;48.944;9.240;2022-07-23T11:41:54;4.45;;;4.05;;
11819;SDS011;5967;48.944;9.240;2022-07-23T11:44:29;5.78;;;5.10;;
11819;SDS011;5967;48.944;9.240;2022-07-23T11:46:57;5.60;;;5.03;;
11819;SDS011;5967;48.944;9.240;2022-07-23T11:49:25;5.18;;;4.68;;
11819;SDS011;5967;48.944;9.240;2022-07-23T11:54:40;4.88;;;4.45;;
11819;SDS011;5967;48.944;9.240;2022-07-23T11:57:31;5.40;;;4.90;;
11819;SDS011;5967;48.944;9.240;2022-07-23T12:00:03;5.70;;;5.20;;
11819;SDS011;5967;48.944;9.240;2022-07-23T12:02:47;5.07;;;4.57;;
11819;SDS011;5967;48.944;9.240;2022-07-23T12:05:16;5.55;;;4.75;;
11819;SDS011;5967;48.944;9.240;2022-07-23T12:07:50;6.22;;;4.90;;
11819;SDS011;5967;48.944;9.240;2022-07-23T12:12:55;5.18;;;4.72;;
11819;SDS011;5967;48.944;9.240;2022-07-23T12:18:23;4.97;;;4.53;;
11819;SDS011;5967;48.944;9.240;2022-07-23T12:20:52;5.80;;;5.10;;
11819;SDS011;5967;48.944;9.240;2022-07-23T12:23:24;5.22;;;4.72;;
11819;SDS011;5967;48.944;9.240;2022-07-23T12:25:51;5.63;;;5.03;;
11819;SDS011;5967;48.944;9.240;2022-07-23T12:28:19;4.93;;;4.53;;
11819;SDS011;5967;48.944;9.240;2022-07-23T12:30:56;5.40;;;4.90;;
11819;SDS011;5967;48.944;9.240;2022-07-23T12:35:54;5.78;;;4.75;;
11819;SDS011;5967;48.944;9.240;2022-07-23T12:38:21;5.55;;;5.03;;
11819;SDS011;5967;48.944;9.240;2022-07-23T12:40:52;6.50;;;5.10;;
11819;SDS011;5967;48.944;9.240;2022-07-23T12:51:24;5.05;;;4.60;;
11819;SDS011;5967;48.944;9.240;2022-07-23T12:53:58;5.20;;;4.70;;
11819;SDS011;5967;48.944;9.240;2022-07-23T12:56:30;6.03;;;5.40;;
11819;SDS011;5967;48.944;9.240;2022-07-23T13:01:29;6.30;;;5.65;;
11819;SDS011;5967;48.944;9.240;2022-07-23T13:04:03;5.88;;;5.35;;
11819;SDS011;5967;48.944;9.240;2022-07-23T13:09:05;6.13;;;5.55;;
11819;SDS011;5967;48.944;9.240;2022-07-23T13:11:35;6.07;;;5.47;;
11819;SDS011;5967;48.944;9.240;2022-07-23T13:14:01;6.93;;;5.68;;
11819;SDS011;5967;48.944;9.240;2022-07-23T13:16:28;6.60;;;6.00;;
11819;SDS011;5967;48.944;9.240;2022-07-23T13:18:55;6.32;;;5.80;;
11819;SDS011;5967;48.944;9.240;2022-07-23T13:21:24;7.05;;;5.97;;
11819;SDS011;5967;48.944;9.240;2022-07-23T13:23:50;6.90;;;6.30;;
11819;SDS011;5967;48.944;9.240;2022-07-23T13:26:16;6.80;;;6.13;;
11819;SDS011;5967;48.944;9.240;2022-07-23T13:28:42;6.70;;;6.03;;
11819;SDS011;5967;48.944;9.240;2022-07-23T13:31:07;8.77;;;6.60;;
11819;SDS011;5967;48.944;9.240;2022-07-23T13:33:33;7.30;;;6.00;;
11819;SDS011;5967;48.944;9.240;2022-07-23T13:35:59;6.72;;;6.22;;
11819;SDS011;5967;48.944;9.240;2022-07-23T13:38:25;7.07;;;6.47;;
11819;SDS011;5967;48.944;9.240;2022-07-23T13:40:52;7.97;;;6.40;;
11819;SDS011;5967;48.944;9.240;2022-07-23T13:43:18;6.65;;;5.95;;
11819;SDS011;5967;48.944;9.240;2022-07-23T13:45:45;6.80;;;6.00;;
11819;SDS011;5967;48.944;9.240;2022-07-23T13:48:12;6.32;;;5.65;;
11819;SDS011;5967;48.944;9.240;2022-07-23T13:50:39;6.88;;;6.28;;
11819;SDS011;5967;48.944;9.240;2022-07-23T13:53:07;7.85;;;5.90;;
11819;SDS011;5967;48.944;9.240;2022-07-23T13:55:35;7.95;;;5.60;;
11819;SDS011;5967;48.944;9.240;2022-07-23T13:58:03;5.90;;;5.30;;
11819;SDS011;5967;48.944;9.240;2022-07-23T14:00:30;6.22;;;5.63;;
11819;SDS011;5967;48.944;9.240;2022-07-23T14:02:57;7.65;;;5.65;;
11819;SDS011;5967;48.944;9.240;2022-07-23T14:05:26;6.25;;;5.10;;
11819;SDS011;5967;48.944;9.240;2022-07-23T14:07:52;5.75;;;5.20;;
11819;SDS011;5967;48.944;9.240;2022-07-23T14:10:19;6.38;;;5.47;;
11819;SDS011;5967;48.944;9.240;2022-07-23T14:12:47;6.72;;;5.47;;
11819;SDS011;5967;48.944;9.240;2022-07-23T14:15:16;8.15;;;5.40;;
11819;SDS011;5967;48.944;9.240;2022-07-23T14:17:44;5.70;;;5.20;;
11819;SDS011;5967;48.944;9.240;2022-07-23T14:20:11;6.25;;;5.30;;
11819;SDS011;5967;48.944;9.240;2022-07-23T14:22:37;5.82;;;5.38;;
11819;SDS011;5967;48.944;9.240;2022-07-23T14:25:09;6.13;;;5.32;;
11819;SDS011;5967;48.944;9.240;2022-07-23T14:27:35;5.53;;;5.03;;
11819;SDS011;5967;48.944;9.240;2022-07-23T14:30:02;5.50;;;5.00;;
11819;SDS011;5967;48.944;9.240;2022-07-23T14:32:34;5.70;;;5.20;;
11819;SDS011;5967;48.944;9.240;2022-07-23T14:35:06;6.93;;;5.43;;
11819;SDS011;5967;48.944;9.240;2022-07-23T14:37:32;8.93;;;5.90;;
11819;SDS011;5967;48.944;9.240;2022-07-23T14:39:57;6.50;;;5.82;;
11819;SDS011;5967;48.944;9.240;2022-07-23T14:42:24;6.70;;;5.55;;
11819;SDS011;5967;48.944;9.240;2022-07-23T14:44:49;6.22;;;5.43;;
11819;SDS011;5967;48.944;9.240;2022-07-23T14:47:15;5.65;;;5.03;;
11819;SDS011;5967;48.944;9.240;2022-07-23T14:49:41;5.90;;;5.40;;
11819;SDS011;5967;48.944;9.240;2022-07-23T14:52:10;6.22;;;5.72;;
11819;SDS011;5967;48.944;9.240;2022-07-23T14:54:35;7.10;;;5.72;;
11819;SDS011;5967;48.944;9.240;2022-07-23T14:57:01;7.45;;;6.10;;
11819;SDS011;5967;48.944;9.240;2022-07-23T14:59:28;6.88;;;6.10;;
11819;SDS011;5967;48.944;9.240;2022-07-23T15:01:55;7.32;;;5.95;;
11819;SDS011;5967;48.944;9.240;2022-07-23T15:04:21;6.30;;;5.72;;
11819;SDS011;5967;48.944;9.240;2022-07-23T15:06:50;6.70;;;6.07;;
11819;SDS011;5967;48.944;9.240;2022-07-23T15:09:15;8.25;;;6.88;;
11819;SDS011;5967;48.944;9.240;2022-07-23T15:11:49;6.90;;;6.30;;
11819;SDS011;5967;48.944;9.240;2022-07-23T15:14:15;7.55;;;6.30;;
11819;SDS011;5967;48.944;9.240;2022-07-23T15:16:41;7.18;;;6.38;;
11819;SDS011;5967;48.944;9.240;2022-07-23T15:19:12;7.35;;;6.65;;
11819;SDS011;5967;48.944;9.240;2022-07-23T15:21:41;6.82;;;6.00;;
11819;SDS011;5967;48.944;9.240;2022-07-23T15:24:09;6.82;;;6.22;;
11819;SDS011;5967;48.944;9.240;2022-07-23T15:26:43;6.88;;;6.18;;
11819;SDS011;5967;48.944;9.240;2022-07-23T15:29:12;6.90;;;6.35;;
11819;SDS011;5967;48.944;9.240;2022-07-23T15:31:38;7.32;;;6.63;;
11819;SDS011;5967;48.944;9.240;2022-07-23T15:34:03;7.00;;;6.35;;
11819;SDS011;5967;48.944;9.240;2022-07-23T15:36:38;7.57;;;6.40;;
11819;SDS011;5967;48.944;9.240;2022-07-23T15:39:04;6.85;;;6.25;;
11819;SDS011;5967;48.944;9.240;2022-07-23T15:41:32;6.97;;;6.32;;
11819;SDS011;5967;48.944;9.240;2022-07-23T15:44:01;6.65;;;6.05;;
11819;SDS011;5967;48.944;9.240;2022-07-23T15:46:32;6.68;;;6.15;;
11819;SDS011;5967;48.944;9.240;2022-07-23T15:48:57;7.82;;;6.50;;
11819;SDS011;5967;48.944;9.240;2022-07-23T15:51:23;7.55;;;6.78;;
11819;SDS011;5967;48.944;9.240;2022-07-23T15:53:49;7.38;;;6.70;;
11819;SDS011;5967;48.944;9.240;2022-07-23T15:56:18;7.28;;;6.55;;
11819;SDS011;5967;48.944;9.240;2022-07-23T15:58:46;7.07;;;6.47;;
11819;SDS011;5967;48.944;9.240;2022-07-23T16:01:12;7.38;;;6.78;;
11819;SDS011;5967;48.944;9.240;2022-07-23T16:03:38;7.32;;;6.72;;
11819;SDS011;5967;48.944;9.240;2022-07-23T16:06:04;7.05;;;6.28;;
11819;SDS011;5967;48.944;9.240;2022-07-23T16:08:30;7.50;;;6.68;;
11819;SDS011;5967;48.944;9.240;2022-07-23T16:11:02;7.10;;;6.40;;